Webcam

2017/05/24 12:50 EBBR 241250Z 32008KT 290V350 9999 SCT032 22/15 Q1025 NOSIG

Webcam image

--- Refresh now ---